createdAt,value
2023-05-29T00:01:06.574Z,67.58
2023-05-29T00:06:05.513Z,67.30
2023-05-29T00:11:04.458Z,68.94
2023-05-29T00:16:03.436Z,70.17
2023-05-29T00:21:02.361Z,69.96
2023-05-29T00:26:01.337Z,70.17
2023-05-29T00:31:00.576Z,69.56
2023-05-29T00:35:59.204Z,69.65
2023-05-29T00:40:58.149Z,70.06
2023-05-29T00:45:57.184Z,70.71
2023-05-29T00:50:56.337Z,71.33
2023-05-29T00:55:54.994Z,71.12
2023-05-29T01:00:54.354Z,71.15
2023-05-29T01:05:52.915Z,72.07
2023-05-29T01:10:51.857Z,71.05
2023-05-29T01:15:50.849Z,71.08
2023-05-29T01:20:49.774Z,71.59
2023-05-29T01:25:48.731Z,72.04
2023-05-29T01:30:47.737Z,72.34
2023-05-29T01:35:46.614Z,74.02
2023-05-29T01:40:45.545Z,74.22
2023-05-29T01:45:44.501Z,74.46
2023-05-29T01:50:43.467Z,72.72
2023-05-29T01:55:42.445Z,74.56
2023-05-29T02:00:41.411Z,74.26
2023-05-29T02:05:40.277Z,75.42
2023-05-29T02:10:39.247Z,74.90
2023-05-29T02:15:38.168Z,74.08
2023-05-29T02:20:37.181Z,74.63
2023-05-29T02:25:36.092Z,74.22
2023-05-29T02:30:35.024Z,74.84
2023-05-29T02:35:33.971Z,73.81
2023-05-29T02:40:33.178Z,74.15
2023-05-29T02:45:31.847Z,73.85
2023-05-29T02:50:30.814Z,75.28
2023-05-29T02:55:29.769Z,75.69
2023-05-29T03:00:28.694Z,76.20
2023-05-29T03:05:27.645Z,76.75
2023-05-29T03:10:26.618Z,77.47
2023-05-29T03:15:25.525Z,77.37
2023-05-29T03:20:24.550Z,77.47
2023-05-29T03:25:23.446Z,77.06
2023-05-29T03:30:22.387Z,76.86
2023-05-29T03:35:21.329Z,77.37
2023-05-29T03:40:20.311Z,76.75
2023-05-29T03:45:19.248Z,77.88
2023-05-29T03:50:18.215Z,76.04
2023-05-29T03:55:17.247Z,78.39
2023-05-29T04:00:16.080Z,77.47
2023-05-29T04:05:15.075Z,79.22
2023-05-29T04:10:13.972Z,79.08
2023-05-29T04:15:12.902Z,79.55
2023-05-29T04:20:11.890Z,80.07
2023-05-29T04:25:10.843Z,81.05
2023-05-29T04:30:09.772Z,81.43
2023-05-29T04:35:08.709Z,80.98
2023-05-29T04:40:07.637Z,81.15
2023-05-29T04:45:06.781Z,81.21
2023-05-29T04:50:05.579Z,81.17
2023-05-29T04:55:04.489Z,80.52
2023-05-29T05:00:03.473Z,79.16
2023-05-29T05:05:02.387Z,78.50
2023-05-29T05:10:01.328Z,77.34
2023-05-29T05:15:00.342Z,76.90
2023-05-29T05:19:59.251Z,73.10
2023-05-29T05:24:58.241Z,73.19
2023-05-29T05:29:57.153Z,73.60
2023-05-29T05:34:56.129Z,72.99
2023-05-29T05:39:55.028Z,72.55
2023-05-29T05:44:54.126Z,72.34
2023-05-29T05:49:52.935Z,70.58
2023-05-29T05:54:51.858Z,69.33
2023-05-29T05:59:50.826Z,68.38
2023-05-29T06:04:49.899Z,67.00
2023-05-29T06:09:48.740Z,65.45
2023-05-29T06:14:47.641Z,65.01
2023-05-29T06:19:46.648Z,63.66
2023-05-29T06:24:45.563Z,62.31
2023-05-29T06:29:44.500Z,62.89
2023-05-29T06:34:43.449Z,60.63
2023-05-29T06:39:42.395Z,57.50
2023-05-29T06:44:41.359Z,57.27
2023-05-29T06:49:40.291Z,56.43
2023-05-29T06:54:39.281Z,57.11
2023-05-29T06:59:38.215Z,56.58
2023-05-29T07:04:37.148Z,55.47
2023-05-29T07:09:36.110Z,55.74
2023-05-29T07:14:35.042Z,54.41
2023-05-29T07:19:34.021Z,54.51
2023-05-29T07:24:32.924Z,54.99
2023-05-29T07:29:31.889Z,55.09
2023-05-29T07:34:30.840Z,54.05
2023-05-29T07:39:29.777Z,52.42
2023-05-29T07:44:28.722Z,52.49
2023-05-29T07:49:27.677Z,51.48
2023-05-29T07:54:26.629Z,48.44
2023-05-29T07:59:25.613Z,48.84
2023-05-29T08:04:24.510Z,48.82
2023-05-29T08:09:23.485Z,45.50
2023-05-29T08:14:22.439Z,45.75
2023-05-29T08:19:21.347Z,45.53
2023-05-29T08:24:20.344Z,46.41
2023-05-29T08:29:19.306Z,43.50
2023-05-29T08:34:18.252Z,45.23
2023-05-29T08:39:17.232Z,46.64
2023-05-29T08:44:16.116Z,44.63
2023-05-29T08:49:15.118Z,45.03
2023-05-29T08:54:14.053Z,44.20
2023-05-29T08:59:12.982Z,44.31
2023-05-29T09:04:12.042Z,44.31
2023-05-29T09:09:10.920Z,45.51
2023-05-29T09:14:09.874Z,45.97
2023-05-29T09:19:08.833Z,44.76
2023-05-29T09:24:07.715Z,43.08
2023-05-29T09:29:06.676Z,44.28
2023-05-29T09:34:05.602Z,44.06
2023-05-29T09:39:14.150Z,42.86
2023-05-29T09:44:03.493Z,43.36
2023-05-29T09:49:02.453Z,43.74
2023-05-29T09:54:01.406Z,44.44
2023-05-29T09:59:00.352Z,43.22
2023-05-29T10:03:59.626Z,44.12
2023-05-29T10:08:58.239Z,44.52
2023-05-29T10:13:57.254Z,44.52
2023-05-29T10:18:56.122Z,44.80
2023-05-29T10:23:55.205Z,44.18
2023-05-29T10:28:54.142Z,44.88
2023-05-29T10:33:52.949Z,43.19
2023-05-29T10:38:51.876Z,45.00
2023-05-29T10:43:50.846Z,45.20
2023-05-29T10:48:50.309Z,44.60
2023-05-29T10:53:48.720Z,44.92
2023-05-29T10:58:47.668Z,44.62
2023-05-29T11:03:46.719Z,45.04
2023-05-29T11:08:45.620Z,46.75
2023-05-29T11:13:44.542Z,45.54
2023-05-29T11:18:43.485Z,46.33
2023-05-29T11:23:42.415Z,45.10
2023-05-29T11:28:41.386Z,45.08
2023-05-29T11:33:40.405Z,44.16
2023-05-29T11:38:39.305Z,45.06
2023-05-29T11:43:38.265Z,44.43
2023-05-29T11:48:37.164Z,45.92
2023-05-29T11:53:36.110Z,43.62
2023-05-29T11:58:35.084Z,44.34
2023-05-29T12:03:34.177Z,44.24
2023-05-29T12:08:34.094Z,43.24
2023-05-29T12:13:32.033Z,43.76
2023-05-29T12:18:30.894Z,43.55
2023-05-29T12:23:29.834Z,44.16
2023-05-29T12:28:28.746Z,44.04
2023-05-29T12:33:27.734Z,43.62
2023-05-29T12:38:26.623Z,43.70
2023-05-29T12:43:25.606Z,41.97
2023-05-29T12:48:24.718Z,41.17
2023-05-29T12:53:23.513Z,41.39
2023-05-29T12:58:22.447Z,41.71
2023-05-29T13:03:21.492Z,41.49
2023-05-29T13:08:20.373Z,41.30
2023-05-29T13:13:19.318Z,40.99
2023-05-29T13:18:18.225Z,41.89
2023-05-29T13:23:17.189Z,41.80
2023-05-29T13:28:16.127Z,41.08
2023-05-29T13:33:15.111Z,40.58
2023-05-29T13:38:14.022Z,39.37
2023-05-29T13:43:12.983Z,39.20
2023-05-29T13:48:11.936Z,39.59
2023-05-29T13:53:10.867Z,39.20
2023-05-29T13:58:09.829Z,39.59
2023-05-29T14:03:08.882Z,39.89
2023-05-29T14:08:07.730Z,38.59
2023-05-29T14:13:06.664Z,37.92
2023-05-29T14:18:05.671Z,38.70
2023-05-29T14:23:04.674Z,38.29
2023-05-29T14:28:03.477Z,38.89
2023-05-29T14:33:02.498Z,39.29
2023-05-29T14:38:01.416Z,37.29
2023-05-29T14:43:00.340Z,38.31
2023-05-29T14:47:59.336Z,38.23
2023-05-29T14:52:58.240Z,39.61
2023-05-29T14:57:57.202Z,38.20
2023-05-29T15:02:56.207Z,37.88
2023-05-29T15:07:55.094Z,37.18
2023-05-29T15:12:54.116Z,36.47
2023-05-29T15:17:53.034Z,35.99
2023-05-29T15:22:51.945Z,37.79
2023-05-29T15:27:50.914Z,38.49
2023-05-29T15:32:49.955Z,37.79
2023-05-29T15:37:48.804Z,37.59
2023-05-29T15:42:47.738Z,36.71
2023-05-29T15:47:46.726Z,37.01
2023-05-29T15:52:54.334Z,37.51
2023-05-29T15:57:44.574Z,37.23
2023-05-29T16:02:43.582Z,38.13
2023-05-29T16:07:42.552Z,37.93
2023-05-29T16:12:41.424Z,37.05
2023-05-29T16:17:40.408Z,37.35
2023-05-29T16:22:42.192Z,36.94
2023-05-29T16:27:38.455Z,36.76
2023-05-29T16:32:37.344Z,36.76
2023-05-29T16:37:36.157Z,37.57
2023-05-29T16:42:35.108Z,37.37
2023-05-29T16:47:34.089Z,37.27
2023-05-29T16:52:33.023Z,36.98
2023-05-29T16:57:31.955Z,37.79
2023-05-29T17:02:30.981Z,38.18
2023-05-29T17:07:29.840Z,38.89
2023-05-29T17:12:28.779Z,39.01
2023-05-29T17:17:27.751Z,39.21
2023-05-29T17:22:26.731Z,40.51
2023-05-29T17:27:25.755Z,40.13
2023-05-29T17:32:24.597Z,40.73
2023-05-29T17:37:23.536Z,40.75
2023-05-29T17:42:22.458Z,41.35
2023-05-29T17:47:21.460Z,42.38
2023-05-29T17:52:20.393Z,41.69
2023-05-29T17:57:19.340Z,42.11
2023-05-29T18:02:18.283Z,43.22
2023-05-29T18:07:17.210Z,42.13
2023-05-29T18:12:16.411Z,43.14
2023-05-29T18:17:15.137Z,41.55
2023-05-29T18:22:14.103Z,43.66
2023-05-29T18:27:13.222Z,41.35
2023-05-29T18:32:12.041Z,42.88
2023-05-29T18:37:10.908Z,43.91
2023-05-29T18:42:09.938Z,43.73
2023-05-29T18:47:08.798Z,43.52
2023-05-29T18:52:07.799Z,43.44
2023-05-29T18:57:06.698Z,43.04
2023-05-29T19:02:05.774Z,42.54
2023-05-29T19:07:04.594Z,42.35
2023-05-29T19:12:03.557Z,41.45
2023-05-29T19:17:02.524Z,40.94
2023-05-29T19:22:01.449Z,39.53
2023-05-29T19:27:00.439Z,39.73
2023-05-29T19:31:59.363Z,41.56
2023-05-29T19:36:58.283Z,40.66
2023-05-29T19:41:57.231Z,40.88
2023-05-29T19:46:56.232Z,39.87
2023-05-29T19:51:55.107Z,39.89
2023-05-29T19:56:54.076Z,39.79
2023-05-29T20:01:53.072Z,39.91
2023-05-29T20:06:52.080Z,41.32
2023-05-29T20:11:50.927Z,41.32
2023-05-29T20:16:49.970Z,42.05
2023-05-29T20:21:48.816Z,41.85
2023-05-29T20:26:47.754Z,42.68
2023-05-29T20:31:46.804Z,42.88
2023-05-29T20:36:45.662Z,43.29
2023-05-29T20:41:44.620Z,44.29
2023-05-29T20:46:43.559Z,44.62
2023-05-29T20:51:42.517Z,45.25
2023-05-29T20:56:41.556Z,46.99
2023-05-29T21:01:40.528Z,49.06
2023-05-29T21:06:39.424Z,49.19
2023-05-29T21:11:38.299Z,49.39
2023-05-29T21:16:37.346Z,48.58
2023-05-29T21:21:36.227Z,50.73
2023-05-29T21:26:35.219Z,51.24
2023-05-29T21:31:34.125Z,49.74
2023-05-29T21:36:33.072Z,51.26
2023-05-29T21:41:32.002Z,50.48
2023-05-29T21:46:30.920Z,51.62
2023-05-29T21:51:29.919Z,52.23
2023-05-29T21:56:28.901Z,52.63
2023-05-29T22:01:27.842Z,52.66
2023-05-29T22:06:26.786Z,53.57
2023-05-29T22:11:25.676Z,53.19
2023-05-29T22:16:24.699Z,54.00
2023-05-29T22:21:23.611Z,53.42
2023-05-29T22:26:22.524Z,54.05
2023-05-29T22:31:21.487Z,55.99
2023-05-29T22:36:20.465Z,55.10
2023-05-29T22:41:19.781Z,55.13
2023-05-29T22:46:18.887Z,55.74
2023-05-29T22:51:17.291Z,56.27
2023-05-29T22:56:16.228Z,57.12
2023-05-29T23:01:15.179Z,58.44
2023-05-29T23:06:14.131Z,58.23
2023-05-29T23:11:13.023Z,59.05
2023-05-29T23:16:12.092Z,58.54
2023-05-29T23:21:10.898Z,59.28
2023-05-29T23:26:09.908Z,59.69
2023-05-29T23:31:08.852Z,59.41
2023-05-29T23:36:07.786Z,58.93
2023-05-29T23:41:06.733Z,60.16
2023-05-29T23:46:05.751Z,62.43
2023-05-29T23:51:04.667Z,62.63
2023-05-29T23:56:03.562Z,61.85
